Time;durP1;ratioP1;P1;durP2;ratioP2;P2;SDS_P1;SDS_P2;PMS_P1;PMS_P2;Temp;Humidity;BMP_temperature;BMP_pressure;BME280_temperature;BME280_humidity;BME280_pressure;Samples;Min_cycle;Max_cycle;Signal;HPM_P1;HPM_P2
2022/01/22 00:01:35;;;;;;;13.03;6.22;;;;;;;-0.76;92.06;142091.11;1764450;80;21080;-56
2022/01/22 00:04:04;;;;;;;10.80;6.70;;;;;;;-0.72;92.26;142099.78;1774954;80;21055;-56
2022/01/22 00:06:32;;;;;;;11.48;6.58;;;;;;;-0.77;91.89;142087.36;1775025;80;21059;-57
2022/01/22 00:08:58;;;;;;;11.25;6.03;;;;;;;-0.79;92.29;142082.37;1774665;81;21032;-56
2022/01/22 00:11:33;;;;;;;10.80;5.30;;;;;;;-0.76;92.50;142089.87;1768529;80;21617;-57
2022/01/22 00:16:39;;;;;;;13.35;6.78;;;;;;;-0.68;92.63;142110.97;1774947;80;21051;-55
2022/01/22 00:19:08;;;;;;;10.30;5.87;;;;;;;-0.64;92.65;142118.41;1775067;80;21533;-54
2022/01/22 00:21:34;;;;;;;10.32;6.05;;;;;;;-0.70;92.28;142106.00;1765788;80;21056;-57
2022/01/22 00:24:02;;;;;;;9.03;5.50;;;;;;;-0.72;92.45;142101.02;1747611;81;21071;-56
2022/01/22 00:26:30;;;;;;;15.70;7.03;;;;;;;-0.72;92.49;142099.78;1747739;81;21036;-56
2022/01/22 00:28:57;;;;;;;17.80;5.70;;;;;;;-0.75;92.51;142093.56;1747682;81;21001;-57
2022/01/22 00:31:23;;;;;;;11.50;5.65;;;;;;;-0.75;92.70;142093.56;1750829;81;21076;-56
2022/01/22 00:33:50;;;;;;;10.68;6.28;;;;;;;-0.77;92.58;142088.59;1774593;80;21028;-56
2022/01/22 00:36:18;;;;;;;10.70;5.67;;;;;;;-0.77;92.96;142087.36;1775056;80;21011;-57
2022/01/22 00:38:44;;;;;;;11.05;6.15;;;;;;;-0.73;93.26;142097.31;1774671;81;21071;-56
2022/01/22 00:41:11;;;;;;;10.30;6.10;;;;;;;-0.70;93.12;142106.00;1774679;80;21000;-56
2022/01/22 00:43:38;;;;;;;12.75;6.03;;;;;;;-0.63;93.28;142120.94;1770906;81;21505;-54
2022/01/22 00:46:06;;;;;;;11.55;5.65;;;;;;;-0.60;93.22;142128.38;1774716;80;21036;-55
2022/01/22 00:48:34;;;;;;;10.75;5.42;;;;;;;-0.59;93.22;142132.06;1774633;81;21021;-57
2022/01/22 00:51:01;;;;;;;12.58;5.67;;;;;;;-0.54;93.12;142144.50;1773503;81;21068;-53
2022/01/22 00:53:28;;;;;;;13.58;6.08;;;;;;;-0.51;92.89;142150.70;1771051;80;21114;-54
2022/01/22 00:55:54;;;;;;;12.65;5.60;;;;;;;-0.54;92.79;142144.50;1773189;81;21558;-54
2022/01/22 00:58:21;;;;;;;11.20;5.22;;;;;;;-0.55;92.87;142142.03;1774476;81;21028;-53
2022/01/22 01:00:49;;;;;;;9.70;5.62;;;;;;;-0.58;92.95;142134.58;1774857;81;21032;-54
2022/01/22 01:03:16;;;;;;;12.00;5.58;;;;;;;-0.58;93.46;142134.58;1774815;80;21079;-54
2022/01/22 01:05:44;;;;;;;9.55;5.37;;;;;;;-0.56;93.42;142138.28;1774612;81;21051;-55
2022/01/22 01:08:11;;;;;;;14.35;5.62;;;;;;;-0.53;93.36;142145.77;1774790;81;21502;-54
2022/01/22 01:10:38;;;;;;;10.28;5.33;;;;;;;-0.50;93.26;142153.22;1774743;81;21076;-53
2022/01/22 01:13:05;;;;;;;12.43;4.75;;;;;;;-0.49;93.27;142155.69;1774392;80;21079;-53
2022/01/22 01:15:55;;;;;;;10.53;5.55;;;;;;;-0.52;92.95;142149.47;1774977;81;20993;-53
2022/01/22 01:34:27;;;;;;;10.63;5.12;;;;;;;-0.61;92.69;142125.86;1744307;82;21020;-56
2022/01/22 01:36:55;;;;;;;11.05;5.37;;;;;;;-0.68;92.69;142110.97;1744290;82;20997;-56
2022/01/22 01:39:27;;;;;;;11.63;4.62;;;;;;;-0.66;92.81;142115.95;1744669;82;21043;-56
2022/01/22 01:41:56;;;;;;;9.90;4.50;;;;;;;-0.62;92.80;142124.62;1774348;80;21032;-55
2022/01/22 01:44:21;;;;;;;12.03;5.35;;;;;;;-0.64;92.69;142118.41;1774951;80;21076;-54
2022/01/22 01:47:10;;;;;;;7.75;3.75;;;;;;;-0.67;92.75;142113.44;1774882;81;21005;-55
2022/01/22 01:49:37;;;;;;;11.33;4.70;;;;;;;-0.68;92.82;142109.73;1774917;80;21008;-55
2022/01/22 01:52:11;;;;;;;9.23;4.45;;;;;;;-0.63;92.90;142120.94;1774798;80;21109;-55
2022/01/22 01:54:46;;;;;;;8.65;4.33;;;;;;;-0.64;92.75;142118.41;1775028;80;21012;-55
2022/01/22 01:59:52;;;;;;;9.90;5.08;;;;;;;-0.62;92.65;142124.62;1774732;81;21032;-55
2022/01/22 02:02:24;;;;;;;10.08;4.35;;;;;;;-0.62;92.69;142123.39;1774193;80;21479;-55
2022/01/22 02:04:50;;;;;;;9.58;4.55;;;;;;;-0.66;92.52;142115.95;1774753;81;21033;-55
2022/01/22 02:07:18;;;;;;;12.03;5.65;;;;;;;-0.68;92.54;142109.73;1774626;81;21590;-56
2022/01/22 02:09:47;;;;;;;15.38;5.92;;;;;;;-0.70;92.68;142106.00;1775259;80;21012;-55
2022/01/22 02:12:32;;;;;;;8.60;4.90;;;;;;;-0.69;92.93;142108.50;1774856;79;21062;-55
2022/01/22 02:25:55;;;;;;;6.40;3.98;;;;;;;-0.74;92.73;142096.09;1741455;82;21064;-56
2022/01/22 02:28:18;;;;;;;10.18;4.35;;;;;;;-0.77;92.67;142088.59;1721736;83;21525;-55
2022/01/22 02:30:49;;;;;;;9.28;4.28;;;;;;;-0.80;92.77;142081.16;1738986;80;21070;-55
2022/01/22 02:33:30;;;;;;;10.90;4.50;;;;;;;-0.81;92.88;142078.69;1749447;80;21004;-55
2022/01/22 02:35:53;;;;;;;11.70;4.65;;;;;;;-0.82;92.68;142074.94;1744800;80;21036;-55
2022/01/22 02:38:30;;;;;;;9.05;4.35;;;;;;;-0.83;92.77;142073.72;1721713;83;21000;-55
2022/01/22 02:40:48;;;;;;;8.25;4.00;;;;;;;-0.81;92.62;142078.69;1719411;83;21545;-55
2022/01/22 02:43:17;;;;;;;9.23;3.83;;;;;;;-0.79;92.46;142082.37;1723711;82;21031;-55
2022/01/22 02:45:46;;;;;;;9.60;3.72;;;;;;;-0.77;92.51;142087.36;1726894;82;21490;-55
2022/01/22 02:48:14;;;;;;;10.38;4.42;;;;;;;-0.76;92.41;142091.11;1722116;83;21067;-55
2022/01/22 02:50:41;;;;;;;9.70;3.60;;;;;;;-0.79;92.05;142083.66;1721736;83;21004;-55
2022/01/22 02:53:13;;;;;;;10.15;3.85;;;;;;;-0.84;92.07;142071.25;1729373;82;21075;-55
2022/01/22 02:55:43;;;;;;;6.37;3.47;;;;;;;-0.83;92.25;142072.47;1751772;82;21048;-55
2022/01/22 02:58:10;;;;;;;8.90;3.30;;;;;;;-0.86;91.66;142065.03;1725918;82;21486;-56
2022/01/22 03:00:37;;;;;;;9.70;3.70;;;;;;;-0.94;91.83;142046.36;1721984;83;21104;-55
2022/01/22 03:03:06;;;;;;;7.20;2.80;;;;;;;-1.01;92.00;142029.02;1724203;82;21079;-55
2022/01/22 03:05:34;;;;;;;13.78;3.12;;;;;;;-1.05;92.11;142019.06;1751863;82;21031;-55
2022/01/22 03:08:06;;;;;;;7.78;3.02;;;;;;;-1.03;92.24;142024.03;1751550;82;21040;-56
2022/01/22 03:10:30;;;;;;;8.83;2.92;;;;;;;-1.00;92.38;142032.72;1751825;80;21020;-55
2022/01/22 03:13:16;;;;;;;9.63;3.40;;;;;;;-0.94;92.26;142046.36;1751246;82;21028;-56
2022/01/22 03:18:40;;;;;;;9.23;4.03;;;;;;;-0.89;91.88;142058.78;1721815;82;21059;-55
2022/01/22 03:29:01;;;;;;;7.97;3.30;;;;;;;-0.66;91.59;142115.95;1721988;82;21518;-54
2022/01/22 03:31:24;;;;;;;8.18;3.20;;;;;;;-0.58;91.31;142133.34;1722287;82;21042;-55
2022/01/22 03:33:54;;;;;;;8.23;3.40;;;;;;;-0.57;90.72;142135.81;1721682;83;21048;-55
2022/01/22 03:36:21;;;;;;;8.18;3.60;;;;;;;-0.56;90.31;142138.28;1737673;81;21056;-55
2022/01/22 03:38:49;;;;;;;9.38;3.33;;;;;;;-0.61;90.03;142127.14;1737008;83;21095;-55
2022/01/22 03:41:16;;;;;;;8.50;3.17;;;;;;;-0.64;89.94;142118.41;1746850;81;21511;-56
2022/01/22 03:43:45;;;;;;;7.62;2.92;;;;;;;-0.69;89.70;142108.50;1763765;81;21068;-55
2022/01/22 03:46:12;;;;;;;6.90;3.20;;;;;;;-0.67;89.90;142112.20;1737590;83;21499;-55
2022/01/22 03:48:40;;;;;;;6.40;3.08;;;;;;;-0.64;89.71;142118.41;1737340;83;21028;-55
2022/01/22 03:51:07;;;;;;;8.35;3.15;;;;;;;-0.61;89.59;142125.86;1744681;81;21028;-54
2022/01/22 03:53:35;;;;;;;7.60;3.35;;;;;;;-0.59;89.43;142130.84;1767584;81;21068;-54
2022/01/22 03:56:04;;;;;;;7.37;3.10;;;;;;;-0.57;89.17;142135.81;1767909;81;20984;-54
2022/01/22 03:58:35;;;;;;;9.68;3.05;;;;;;;-0.56;88.90;142139.56;1767912;81;20986;-53
2022/01/22 04:03:40;;;;;;;8.65;2.80;;;;;;;-0.61;88.36;142125.86;1737512;83;21016;-54
2022/01/22 04:08:36;;;;;;;14.45;4.97;;;;;;;-0.77;88.14;142087.36;1767593;80;21001;-55
2022/01/22 04:11:09;;;;;;;8.73;3.00;;;;;;;-0.77;88.48;142087.36;1762579;81;21482;-56
2022/01/22 04:13:35;;;;;;;7.80;4.05;;;;;;;-0.77;88.31;142088.59;1737187;82;21523;-56
2022/01/22 04:16:06;;;;;;;8.13;3.75;;;;;;;-0.76;88.38;142091.11;1737627;83;21040;-54
2022/01/22 04:26:58;;;;;;;10.58;3.30;;;;;;;-1.01;90.32;142030.25;1751585;81;21060;-55
2022/01/22 04:29:26;;;;;;;8.83;3.37;;;;;;;-0.99;90.30;142033.94;1767395;81;21001;-55
2022/01/22 04:31:54;;;;;;;10.05;3.20;;;;;;;-1.02;90.00;142027.73;1746103;81;21016;-55
2022/01/22 04:34:21;;;;;;;11.50;4.70;;;;;;;-1.03;90.16;142024.03;1737239;82;21037;-55
2022/01/22 04:36:47;;;;;;;7.42;3.00;;;;;;;-1.03;90.10;142025.27;1731110;82;21051;-55
2022/01/22 04:39:14;;;;;;;8.15;3.35;;;;;;;-1.01;90.05;142029.02;1751562;82;21059;-56
2022/01/22 04:41:41;;;;;;;11.90;3.60;;;;;;;-1.00;89.92;142031.47;1751487;80;21064;-55
2022/01/22 04:44:09;;;;;;;9.20;3.45;;;;;;;-0.99;89.86;142033.94;1751565;80;21032;-55
2022/01/22 04:46:56;;;;;;;8.08;3.27;;;;;;;-0.99;89.27;142033.94;1738442;80;21067;-57
2022/01/22 04:57:20;;;;;;;7.92;2.80;;;;;;;-1.02;88.47;142027.73;1751738;80;21000;-55
2022/01/22 04:59:47;;;;;;;8.35;2.62;;;;;;;-1.05;88.22;142019.06;1751957;82;21090;-55
2022/01/22 05:02:14;;;;;;;5.42;2.80;;;;;;;-1.13;87.84;142001.67;1751574;82;21035;-55
2022/01/22 05:04:54;;;;;;;7.03;2.70;;;;;;;-1.19;88.06;141986.78;1742288;80;21490;-55
2022/01/22 05:07:33;;;;;;;8.30;3.47;;;;;;;-1.19;87.68;141986.78;1719890;82;21534;-55
2022/01/22 05:10:09;;;;;;;10.60;3.50;;;;;;;-1.19;87.76;141985.56;1729554;82;21004;-54
2022/01/22 05:12:37;;;;;;;12.30;3.98;;;;;;;-1.15;87.86;141995.47;1751505;82;21008;-55
2022/01/22 05:15:08;;;;;;;11.60;3.15;;;;;;;-1.12;87.63;142004.17;1750751;81;21028;-54
2022/01/22 05:17:38;;;;;;;11.70;3.67;;;;;;;-1.11;87.38;142006.64;1725731;82;21016;-54
2022/01/22 05:20:17;;;;;;;10.13;3.65;;;;;;;-1.07;87.58;142014.08;1721249;83;21028;-55
2022/01/22 05:22:53;;;;;;;9.08;3.30;;;;;;;-1.05;87.21;142019.06;1721560;83;20996;-54
2022/01/22 05:25:16;;;;;;;6.90;3.83;;;;;;;-1.07;87.21;142015.31;1732567;82;21021;-55
2022/01/22 05:27:54;;;;;;;7.97;3.02;;;;;;;-1.03;87.11;142024.03;1751035;82;21024;-54
2022/01/22 05:31:01;;;;;;;6.53;3.17;;;;;;;-1.00;86.75;142031.47;1749146;82;21050;-54
2022/01/22 05:33:15;;;;;;;11.43;4.05;;;;;;;-0.99;86.67;142035.22;1748179;80;21060;-54
2022/01/22 05:38:24;;;;;;;9.63;4.10;;;;;;;-0.94;86.44;142046.36;1721786;83;21067;-54
2022/01/22 05:40:51;;;;;;;10.70;3.98;;;;;;;-0.94;86.06;142047.64;1722112;83;21075;-55
2022/01/22 05:43:17;;;;;;;11.00;4.40;;;;;;;-1.01;85.47;142030.25;1722098;82;21011;-55
2022/01/22 05:45:44;;;;;;;7.85;3.33;;;;;;;-1.13;85.63;142001.67;1744079;80;21486;-54
2022/01/22 05:48:13;;;;;;;10.65;4.30;;;;;;;-1.15;85.64;141995.47;1751533;82;21036;-55
2022/01/22 05:50:57;;;;;;;6.97;2.83;;;;;;;-1.17;85.39;141991.77;1751809;82;21008;-54
2022/01/22 06:01:15;;;;;;;7.60;3.12;;;;;;;-1.31;84.92;141956.98;1721909;82;21040;-55
2022/01/22 06:03:53;;;;;;;8.53;3.20;;;;;;;-1.33;85.27;141952.00;1721313;83;21055;-55
2022/01/22 06:06:20;;;;;;;6.45;2.70;;;;;;;-1.29;85.34;141961.95;1744141;82;21032;-55
2022/01/22 06:08:52;;;;;;;7.53;3.47;;;;;;;-1.23;85.34;141976.84;1749621;82;21044;-56
2022/01/22 06:11:22;;;;;;;10.38;4.65;;;;;;;-1.19;84.94;141986.78;1751318;80;21044;-55
2022/01/22 06:13:46;;;;;;;11.05;3.58;;;;;;;-1.19;84.92;141986.78;1753726;82;21477;-54
2022/01/22 06:16:18;;;;;;;6.50;2.67;;;;;;;-1.13;84.95;142001.67;1751970;80;21027;-47
2022/01/22 06:19:03;;;;;;;8.25;3.55;;;;;;;-1.02;85.99;142026.50;1749779;82;21454;-48
2022/01/22 06:21:30;;;;;;;7.80;3.98;;;;;;;-0.55;86.18;142140.80;1751827;82;21024;-59
2022/01/22 06:23:57;;;;;;;12.28;4.50;;;;;;;-0.48;84.06;142159.44;1751644;82;21063;-55
2022/01/22 06:26:24;;;;;;;10.53;3.52;;;;;;;-0.54;83.21;142143.27;1746672;82;21000;-56
2022/01/22 06:28:50;;;;;;;8.75;3.60;;;;;;;-0.58;83.09;142133.34;1722126;83;21019;-56
2022/01/22 06:31:19;;;;;;;11.78;4.53;;;;;;;-0.60;83.06;142129.59;1721543;83;20996;-56
2022/01/22 06:33:46;;;;;;;11.75;4.17;;;;;;;-0.54;83.00;142144.50;1722004;82;21024;-56
2022/01/22 06:36:14;;;;;;;8.58;3.02;;;;;;;-0.58;82.16;142134.58;1728284;82;21015;-56
2022/01/22 06:38:41;;;;;;;8.25;3.33;;;;;;;-0.68;81.61;142110.97;1721699;82;21046;-56
2022/01/22 06:41:45;;;;;;;13.00;6.90;;;;;;;-0.71;81.83;142103.53;1722022;83;21522;-56
2022/01/22 06:44:34;;;;;;;6.08;3.05;;;;;;;-0.73;81.68;142098.55;1722018;82;21507;-56
2022/01/22 06:47:07;;;;;;;7.17;3.35;;;;;;;-0.71;81.73;142103.53;1684940;82;21032;-56
2022/01/22 06:49:48;;;;;;;9.18;3.50;;;;;;;-0.71;81.67;142103.53;1722262;83;21043;-56
2022/01/22 06:52:35;;;;;;;8.98;2.87;;;;;;;-0.69;81.64;142107.22;1721782;83;21502;-56
2022/01/22 06:55:05;;;;;;;9.18;3.10;;;;;;;-0.71;81.18;142103.53;1724624;82;21031;-56
2022/01/22 06:57:34;;;;;;;7.25;3.33;;;;;;;-0.71;81.12;142103.53;1752016;82;20993;-56
2022/01/22 07:00:01;;;;;;;9.50;3.45;;;;;;;-0.74;80.91;142096.09;1751535;82;21027;-56
2022/01/22 07:02:29;;;;;;;8.80;3.33;;;;;;;-0.73;81.14;142097.31;1732116;81;21028;-56
2022/01/22 07:04:56;;;;;;;11.55;3.70;;;;;;;-0.68;81.17;142110.97;1751454;80;21135;-56
2022/01/22 07:07:40;;;;;;;6.60;3.90;;;;;;;-0.63;81.13;142122.16;1748021;80;21028;-56
2022/01/22 07:10:09;;;;;;;10.70;5.37;;;;;;;-0.60;80.45;142129.59;1749376;82;21048;-56
2022/01/22 07:12:38;;;;;;;8.65;3.67;;;;;;;-0.60;80.71;142128.38;1747896;81;21072;-56
2022/01/22 07:15:06;;;;;;;8.30;3.60;;;;;;;-0.60;80.18;142128.38;1751597;82;21028;-55
2022/01/22 07:17:36;;;;;;;12.05;4.08;;;;;;;-0.72;80.42;142101.02;1751792;82;20980;-57
2022/01/22 07:20:11;;;;;;;7.33;3.03;;;;;;;-0.74;80.68;142096.09;1751197;82;21543;-56
2022/01/22 07:22:47;;;;;;;8.63;3.12;;;;;;;-0.70;81.12;142106.00;1750427;82;21059;-55
2022/01/22 07:25:09;;;;;;;6.35;3.02;;;;;;;-0.64;80.93;142118.41;1744676;82;21071;-56
2022/01/22 07:27:36;;;;;;;10.55;4.40;;;;;;;-0.61;81.43;142125.86;1751605;80;21564;-56
2022/01/22 07:30:06;;;;;;;19.05;8.35;;;;;;;-0.50;81.64;142153.22;1751794;80;21008;-56
2022/01/22 07:32:37;;;;;;;11.40;5.17;;;;;;;-0.42;81.28;142173.09;1751603;82;21024;-57
2022/01/22 07:35:05;;;;;;;8.63;3.85;;;;;;;-0.38;81.12;142183.05;1744709;81;21044;-56
2022/01/22 07:37:35;;;;;;;7.37;3.90;;;;;;;-0.35;81.30;142190.50;1751578;81;21048;-57
2022/01/22 07:40:08;;;;;;;9.25;4.85;;;;;;;-0.28;81.24;142207.89;1751344;82;21016;-55
2022/01/22 07:42:43;;;;;;;8.00;3.70;;;;;;;-0.23;81.28;142219.03;1742129;80;21051;-56
2022/01/22 07:45:28;;;;;;;9.90;4.58;;;;;;;-0.17;81.05;142232.75;1738646;82;21005;-56
2022/01/22 07:47:57;;;;;;;8.38;3.87;;;;;;;-0.08;81.22;142256.31;1748563;80;21020;-56
2022/01/22 07:50:25;;;;;;;9.65;3.92;;;;;;;0.01;80.69;142277.48;1748824;82;21016;-56
2022/01/22 07:52:52;;;;;;;11.10;4.30;;;;;;;0.07;80.84;142291.14;1751707;82;21495;-56
2022/01/22 07:55:21;;;;;;;10.58;4.40;;;;;;;0.13;80.52;142307.31;1749433;82;21523;-57
2022/01/22 07:57:48;;;;;;;12.10;5.53;;;;;;;0.23;80.52;142330.95;1724419;82;21111;-56
2022/01/22 08:00:17;;;;;;;14.23;6.72;;;;;;;0.36;80.07;142362.03;1721764;83;21506;-57
2022/01/22 08:02:45;;;;;;;14.83;6.22;;;;;;;0.43;79.25;142379.41;1713146;82;21482;-56
2022/01/22 08:05:32;;;;;;;13.20;5.83;;;;;;;0.47;79.39;142389.36;1715590;84;21000;-53
2022/01/22 08:08:07;;;;;;;13.25;6.35;;;;;;;0.56;78.89;142410.48;1703385;82;21043;-53
2022/01/22 08:10:40;;;;;;;13.28;5.97;;;;;;;0.62;78.04;142426.67;1699977;83;21044;-53
2022/01/22 08:13:09;;;;;;;12.45;5.40;;;;;;;0.65;77.40;142434.13;1737018;82;21071;-54
2022/01/22 08:15:36;;;;;;;16.87;6.12;;;;;;;1.05;82.29;142531.16;1732741;82;21522;-53
2022/01/22 08:18:06;;;;;;;10.93;4.50;;;;;;;1.48;77.05;142634.47;1751852;82;21011;-55
2022/01/22 08:20:33;;;;;;;10.45;4.70;;;;;;;1.52;76.00;142645.63;1733821;82;20984;-53
2022/01/22 08:22:59;;;;;;;10.28;4.62;;;;;;;1.67;75.35;142680.48;1722053;83;21032;-53
2022/01/22 08:25:46;;;;;;;9.28;4.20;;;;;;;1.76;73.93;142702.92;1721914;82;20985;-53
2022/01/22 08:31:16;;;;;;;10.53;4.87;;;;;;;2.04;72.30;142770.16;1750630;81;21028;-53
2022/01/22 08:35:52;;;;;;;;;;;;;;;1.85;71.20;142725.30;1752704;80;21067;-53
2022/01/22 08:36:02;;;;;;;6.70;3.83;;;;;;;1.68;71.76;142682.97;1737751;81;20085;-58
2022/01/22 08:38:31;;;;;;;9.25;5.00;;;;;;;1.54;72.20;142648.14;1737679;82;21036;-56
2022/01/22 08:40:58;;;;;;;7.50;3.87;;;;;;;1.48;72.86;142635.69;1737503;83;21056;-56
2022/01/22 08:43:28;;;;;;;13.35;5.90;;;;;;;1.46;72.75;142629.47;1756808;81;21514;-56
2022/01/22 08:45:55;;;;;;;9.68;5.08;;;;;;;1.42;73.12;142620.73;1767535;81;21018;-56
2022/01/22 08:48:23;;;;;;;9.45;4.28;;;;;;;1.32;72.50;142594.61;1767520;81;21016;-55
2022/01/22 08:50:55;;;;;;;8.95;3.90;;;;;;;1.13;73.39;142548.59;1759170;81;21115;-55
2022/01/22 08:53:22;;;;;;;9.23;4.05;;;;;;;1.20;73.51;142566.02;1737421;82;21032;-55
2022/01/22 08:55:50;;;;;;;7.95;3.85;;;;;;;1.28;73.39;142585.91;1737167;83;21036;-55
2022/01/22 08:58:17;;;;;;;10.68;3.90;;;;;;;1.35;72.99;142603.34;1737429;83;21040;-56
2022/01/22 09:00:58;;;;;;;11.22;3.90;;;;;;;1.47;72.91;142633.17;1762193;81;21072;-55
2022/01/22 09:03:27;;;;;;;10.35;4.60;;;;;;;1.62;72.04;142668.05;1766342;81;20985;-55
2022/01/22 09:05:58;;;;;;;9.93;4.17;;;;;;;1.67;71.94;142680.48;1767705;81;21539;-55
2022/01/22 09:08:28;;;;;;;14.40;5.00;;;;;;;1.85;72.30;142725.30;1767881;81;21025;-55
2022/01/22 09:11:03;;;;;;;10.28;5.15;;;;;;;2.00;70.74;142761.41;1739799;81;21060;-60
2022/01/22 09:13:32;;;;;;;9.15;4.20;;;;;;;2.05;70.47;142772.62;1733832;83;21005;-55
2022/01/22 09:16:08;;;;;;;17.10;4.62;;;;;;;1.94;69.55;142747.72;1737208;82;21033;-56
2022/01/22 09:18:37;;;;;;;10.43;4.10;;;;;;;1.81;69.68;142715.38;1739438;81;21569;-55
2022/01/22 09:21:06;;;;;;;8.68;4.62;;;;;;;1.74;69.32;142697.92;1737148;83;20997;-57
2022/01/22 09:23:36;;;;;;;9.43;4.83;;;;;;;1.63;70.28;142670.52;1739562;81;21044;-55
2022/01/22 09:26:06;;;;;;;9.80;4.42;;;;;;;1.63;70.46;142670.52;1736657;83;21040;-54
2022/01/22 09:28:35;;;;;;;12.45;4.67;;;;;;;1.68;70.66;142682.97;1739244;81;21005;-55
2022/01/22 09:31:02;;;;;;;10.55;4.55;;;;;;;1.71;70.16;142690.47;1736956;81;21107;-56
2022/01/22 09:33:30;;;;;;;11.03;5.53;;;;;;;1.70;70.04;142687.95;1750053;81;21553;-54
2022/01/22 09:36:07;;;;;;;9.85;4.70;;;;;;;1.71;69.85;142690.47;1754308;81;21044;-57
2022/01/22 09:38:37;;;;;;;8.80;4.70;;;;;;;1.67;69.90;142680.48;1751232;82;21029;-54
2022/01/22 09:41:06;;;;;;;7.42;3.77;;;;;;;1.67;69.86;142681.72;1724708;83;21060;-55
2022/01/22 09:43:38;;;;;;;;;;;;;;;1.67;69.57;142680.48;1727910;83;21519;-55
2022/01/22 09:46:08;;;;;;;9.00;4.60;;;;;;;1.66;69.84;142678.03;1723386;83;20108;-57
2022/01/22 09:48:53;;;;;;;9.30;5.12;;;;;;;1.72;69.93;142694.17;1729449;82;21033;-57
2022/01/22 09:51:22;;;;;;;9.48;3.60;;;;;;;1.83;69.83;142719.06;1679136;85;21043;-56
2022/01/22 09:54:10;;;;;;;7.85;3.45;;;;;;;1.99;69.23;142757.70;1697734;84;21515;-64
2022/01/22 09:56:48;;;;;;;8.20;3.85;;;;;;;2.16;67.77;142801.28;1727791;82;21515;-58
2022/01/22 09:59:28;;;;;;;7.28;3.60;;;;;;;2.25;67.12;142822.44;1700735;83;21052;-58
2022/01/22 10:02:19;;;;;;;7.42;3.95;;;;;;;2.27;66.82;142826.19;1750759;82;20990;-58
2022/01/22 10:04:52;;;;;;;;;;;;;;;2.25;66.25;142821.20;1757888;82;21036;-59
2022/01/22 10:07:39;;;;;;;11.83;4.17;;;;;;;2.23;65.77;142816.22;1712430;82;20137;-60
2022/01/22 10:10:08;;;;;;;6.83;3.75;;;;;;;2.29;65.73;142831.14;1712369;82;21038;-59
2022/01/22 10:12:52;;;;;;;11.10;4.05;;;;;;;2.43;65.51;142864.80;1717433;83;21032;-55
2022/01/22 10:15:35;;;;;;;8.78;3.90;;;;;;;2.61;65.13;142910.88;1727197;82;21037;-60
2022/01/22 10:18:04;;;;;;;9.23;4.00;;;;;;;2.78;64.28;142952.00;1739448;82;21459;-61
2022/01/22 10:20:41;;;;;;;8.28;3.80;;;;;;;2.78;63.79;142952.00;1738344;82;21597;-60
2022/01/22 10:23:23;;;;;;;7.20;3.70;;;;;;;2.75;63.74;142944.53;1740386;82;21005;-63
2022/01/22 10:26:02;;;;;;;9.38;3.45;;;;;;;2.53;63.27;142890.94;1740030;82;21040;-61
2022/01/22 10:28:29;;;;;;;7.20;3.50;;;;;;;2.37;63.71;142851.11;1729509;82;21201;-62
2022/01/22 10:31:01;;;;;;;6.90;3.52;;;;;;;2.20;64.02;142808.75;1702444;83;20998;-62
2022/01/22 10:34:07;;;;;;;8.75;3.62;;;;;;;2.05;64.59;142772.62;1722300;83;21084;-61
2022/01/22 10:36:59;;;;;;;7.05;3.05;;;;;;;1.91;65.75;142740.27;1750793;82;21480;-55
2022/01/22 10:39:29;;;;;;;9.18;4.55;;;;;;;1.80;66.47;142712.84;1743962;82;21080;-56
2022/01/22 10:41:58;;;;;;;9.48;4.15;;;;;;;1.82;67.21;142716.59;1753996;82;21479;-57
2022/01/22 10:44:47;;;;;;;9.58;3.95;;;;;;;1.83;67.66;142720.36;1750337;82;21010;-56
2022/01/22 10:47:25;;;;;;;7.40;3.10;;;;;;;1.84;67.63;142722.83;1754608;82;21033;-55
2022/01/22 10:49:51;;;;;;;9.38;4.28;;;;;;;1.78;67.69;142707.91;1736194;82;21068;-57
2022/01/22 10:52:18;;;;;;;8.53;3.45;;;;;;;1.81;67.51;142714.12;1725343;83;21098;-54
2022/01/22 10:54:46;;;;;;;9.15;3.27;;;;;;;1.86;67.56;142727.81;1725098;83;21602;-56
2022/01/22 10:57:23;;;;;;;5.92;2.58;;;;;;;1.81;67.11;142714.12;1725014;83;21037;-55
2022/01/22 10:59:56;;;;;;;6.22;2.80;;;;;;;1.53;67.11;142646.91;1729692;82;21496;-55
2022/01/22 11:02:38;;;;;;;8.58;3.58;;;;;;;1.25;68.58;142579.69;1725221;83;21107;-57
2022/01/22 11:05:07;;;;;;;7.78;3.17;;;;;;;1.28;69.72;142587.16;1725266;82;21013;-54
2022/01/22 11:07:34;;;;;;;7.47;3.50;;;;;;;1.39;70.08;142612.03;1725281;83;21021;-53
2022/01/22 11:10:01;;;;;;;10.03;4.25;;;;;;;1.42;71.17;142620.73;1731368;82;20994;-54
2022/01/22 11:12:29;;;;;;;9.48;4.55;;;;;;;1.37;71.80;142607.05;1724891;83;21068;-54
2022/01/22 11:14:56;;;;;;;10.08;4.60;;;;;;;1.27;72.37;142584.69;1725305;83;21001;-56
2022/01/22 11:17:31;;;;;;;8.93;5.17;;;;;;;1.07;73.65;142534.91;1725024;83;21066;-54
2022/01/22 11:20:00;;;;;;;13.50;5.40;;;;;;;0.96;75.03;142507.52;1727306;82;20953;-55
2022/01/22 11:22:28;;;;;;;13.53;6.17;;;;;;;0.92;76.43;142497.59;1742829;82;21068;-55
2022/01/22 11:24:57;;;;;;;10.75;5.37;;;;;;;0.72;77.11;142449.08;1725262;83;20997;-54
2022/01/22 11:27:24;;;;;;;12.68;6.42;;;;;;;0.70;78.56;142444.09;1725153;82;21002;-54
2022/01/22 11:30:08;;;;;;;13.05;6.85;;;;;;;0.83;80.06;142476.42;1725242;82;21072;-54
2022/01/22 11:32:52;;;;;;;12.13;6.37;;;;;;;0.97;80.73;142511.27;1731335;82;21029;-55
2022/01/22 11:35:27;;;;;;;11.85;6.62;;;;;;;1.13;80.90;142548.59;1752414;82;21025;-54
2022/01/22 11:38:02;;;;;;;13.55;6.58;;;;;;;1.17;80.08;142558.52;1753072;82;21669;-54
2022/01/22 11:40:33;;;;;;;20.23;7.12;;;;;;;1.16;80.31;142557.28;1726078;82;20990;-55
2022/01/22 11:43:08;;;;;;;13.78;7.33;;;;;;;1.14;80.19;142551.06;1734356;82;21030;-55
2022/01/22 11:45:50;;;;;;;12.93;7.58;;;;;;;1.06;80.02;142532.39;1755223;82;21033;-54
2022/01/22 11:48:20;;;;;;;11.40;6.42;;;;;;;1.06;81.00;142532.39;1754305;82;21034;-55
2022/01/22 11:50:50;;;;;;;14.73;7.78;;;;;;;1.10;81.53;142541.12;1727195;82;21025;-54
2022/01/22 11:53:32;;;;;;;12.85;6.87;;;;;;;1.14;82.10;142552.30;1725245;83;20998;-55
2022/01/22 11:56:24;;;;;;;11.12;6.35;;;;;;;1.05;81.76;142531.16;1725376;83;21440;-55
2022/01/22 11:59:06;;;;;;;12.82;6.60;;;;;;;0.93;81.50;142500.06;1753861;82;21127;-55
2022/01/22 12:01:54;;;;;;;13.43;6.78;;;;;;;0.74;82.14;142454.02;1754848;82;21037;-55
2022/01/22 12:04:28;;;;;;;11.12;6.10;;;;;;;0.68;82.97;142439.09;1754873;82;21086;-55
2022/01/22 12:07:07;;;;;;;9.73;4.40;;;;;;;0.60;83.33;142420.45;1751260;82;21112;-54
2022/01/22 12:15:41;;;;;;;5.37;2.30;;;;;;;-0.54;85.38;142143.27;1727204;82;21519;-54
2022/01/22 12:18:17;;;;;;;5.10;2.47;;;;;;;-0.83;87.06;142073.72;1728337;82;21069;-55
2022/01/22 12:23:34;;;;;;;5.30;2.12;;;;;;;-1.17;88.91;141991.77;1741297;82;21131;-57
2022/01/22 12:26:04;;;;;;;5.87;2.47;;;;;;;-1.37;89.53;141943.34;1728288;82;21736;-59
2022/01/22 12:28:41;;;;;;;6.42;2.70;;;;;;;-1.47;90.37;141918.52;1729908;82;21041;-60
2022/01/22 12:31:18;;;;;;;5.90;2.55;;;;;;;-1.46;91.12;141919.75;1743123;82;21056;-57
2022/01/22 12:33:54;;;;;;;6.95;3.52;;;;;;;-1.42;91.25;141929.69;1725024;82;21066;-55
2022/01/22 12:36:38;;;;;;;5.42;2.85;;;;;;;-1.37;91.12;141942.11;1746220;82;21732;-56
2022/01/22 12:39:11;;;;;;;6.33;2.98;;;;;;;-1.43;90.96;141928.41;1755100;81;21034;-54
2022/01/22 12:46:51;;;;;;;10.82;6.67;;;;;;;-1.38;91.88;141939.59;1755309;82;20986;-53
2022/01/22 12:49:21;;;;;;;9.13;5.33;;;;;;;-1.31;91.90;141956.98;1754885;82;21166;-55
2022/01/22 12:51:57;;;;;;;9.65;5.12;;;;;;;-1.17;92.27;141991.77;1752488;81;20989;-56
2022/01/22 12:54:31;;;;;;;13.83;8.48;;;;;;;-0.94;92.69;142047.64;1746889;82;21136;-55
2022/01/22 12:57:06;;;;;;;7.92;4.40;;;;;;;-0.73;92.44;142098.55;1755204;82;20982;-56
2022/01/22 13:00:09;;;;;;;10.50;4.42;;;;;;;-0.61;91.33;142125.86;1755234;82;21049;-56
2022/01/22 13:02:50;;;;;;;7.10;4.28;;;;;;;-0.73;90.84;142098.55;1747910;82;21108;-58
2022/01/22 13:05:20;;;;;;;7.85;4.35;;;;;;;-0.73;90.75;142098.55;1725419;83;21037;-54
2022/01/22 13:08:02;;;;;;;7.78;4.53;;;;;;;-0.82;90.52;142076.17;1731333;82;21155;-55
2022/01/22 13:10:48;;;;;;;11.68;5.35;;;;;;;-0.90;91.12;142056.31;1737931;82;20969;-55
2022/01/22 13:13:19;;;;;;;11.73;5.42;;;;;;;-0.93;90.89;142050.11;1754585;82;21061;-55
2022/01/22 13:15:46;;;;;;;13.35;6.10;;;;;;;-0.99;91.15;142033.94;1755200;82;21535;-54
2022/01/22 13:18:14;;;;;;;9.10;5.62;;;;;;;-1.07;91.47;142014.08;1729762;82;21006;-54